sensor_id;sensor_type;location;lat;lon;timestamp;temperature;humidity
52919;DHT22;38793;52.690;6.812;2022-12-18T00:02:16;-3.70;99.90
52919;DHT22;38793;52.690;6.812;2022-12-18T00:04:42;-3.70;99.90
52919;DHT22;38793;52.690;6.812;2022-12-18T00:07:07;-3.70;99.90
52919;DHT22;38793;52.690;6.812;2022-12-18T00:09:33;-3.70;99.90
52919;DHT22;38793;52.690;6.812;2022-12-18T00:11:59;-3.70;99.90
52919;DHT22;38793;52.690;6.812;2022-12-18T00:14:24;-3.80;99.90
52919;DHT22;38793;52.690;6.812;2022-12-18T00:16:50;-3.80;99.90
52919;DHT22;38793;52.690;6.812;2022-12-18T00:19:16;-3.80;99.90
52919;DHT22;38793;52.690;6.812;2022-12-18T00:21:42;-3.80;99.90
52919;DHT22;38793;52.690;6.812;2022-12-18T00:24:09;-3.80;99.90
52919;DHT22;38793;52.690;6.812;2022-12-18T00:26:35;-3.90;99.90
52919;DHT22;38793;52.690;6.812;2022-12-18T00:29:05;-3.90;99.90
52919;DHT22;38793;52.690;6.812;2022-12-18T00:31:32;-3.90;99.90
52919;DHT22;38793;52.690;6.812;2022-12-18T00:33:58;-4.00;99.90
52919;DHT22;38793;52.690;6.812;2022-12-18T00:36:26;-4.00;99.90
52919;DHT22;38793;52.690;6.812;2022-12-18T00:38:54;-4.10;99.90
52919;DHT22;38793;52.690;6.812;2022-12-18T00:41:20;-4.10;99.90
52919;DHT22;38793;52.690;6.812;2022-12-18T00:44:06;-4.20;99.90
52919;DHT22;38793;52.690;6.812;2022-12-18T00:46:32;-4.20;99.90
52919;DHT22;38793;52.690;6.812;2022-12-18T00:48:58;-4.20;99.90
52919;DHT22;38793;52.690;6.812;2022-12-18T00:51:25;-4.30;99.90
52919;DHT22;38793;52.690;6.812;2022-12-18T00:53:51;-4.30;99.90
52919;DHT22;38793;52.690;6.812;2022-12-18T00:56:16;-4.30;99.90
52919;DHT22;38793;52.690;6.812;2022-12-18T00:58:42;-4.40;99.90
52919;DHT22;38793;52.690;6.812;2022-12-18T01:01:07;-4.40;99.90
52919;DHT22;38793;52.690;6.812;2022-12-18T01:03:34;-4.50;99.90
52919;DHT22;38793;52.690;6.812;2022-12-18T01:06:04;-4.60;99.90
52919;DHT22;38793;52.690;6.812;2022-12-18T01:08:30;-4.60;99.90
52919;DHT22;38793;52.690;6.812;2022-12-18T01:10:55;-4.60;99.90
52919;DHT22;38793;52.690;6.812;2022-12-18T01:13:21;-4.60;99.90
52919;DHT22;38793;52.690;6.812;2022-12-18T01:15:50;-4.60;99.90
52919;DHT22;38793;52.690;6.812;2022-12-18T01:18:16;-4.60;99.90
52919;DHT22;38793;52.690;6.812;2022-12-18T01:20:42;-4.60;99.90
52919;DHT22;38793;52.690;6.812;2022-12-18T01:23:08;-4.60;99.90
52919;DHT22;38793;52.690;6.812;2022-12-18T01:25:35;-4.70;99.90
52919;DHT22;38793;52.690;6.812;2022-12-18T01:28:01;-4.70;99.90
52919;DHT22;38793;52.690;6.812;2022-12-18T01:30:27;-4.70;99.90
52919;DHT22;38793;52.690;6.812;2022-12-18T01:32:53;-4.80;99.90
52919;DHT22;38793;52.690;6.812;2022-12-18T01:35:18;-4.80;99.90
52919;DHT22;38793;52.690;6.812;2022-12-18T01:37:44;-4.80;99.90
52919;DHT22;38793;52.690;6.812;2022-12-18T01:40:10;-4.90;99.90
52919;DHT22;38793;52.690;6.812;2022-12-18T01:42:36;-5.00;99.90
52919;DHT22;38793;52.690;6.812;2022-12-18T01:47:49;-5.20;99.90
52919;DHT22;38793;52.690;6.812;2022-12-18T01:50:18;-5.20;99.90
52919;DHT22;38793;52.690;6.812;2022-12-18T01:52:56;-5.30;99.90
52919;DHT22;38793;52.690;6.812;2022-12-18T01:55:26;-5.30;99.90
52919;DHT22;38793;52.690;6.812;2022-12-18T01:57:55;-5.40;99.90
52919;DHT22;38793;52.690;6.812;2022-12-18T02:00:22;-5.40;99.90
52919;DHT22;38793;52.690;6.812;2022-12-18T02:02:49;-5.40;99.90
52919;DHT22;38793;52.690;6.812;2022-12-18T02:05:18;-5.50;99.90
52919;DHT22;38793;52.690;6.812;2022-12-18T02:10:24;-5.60;99.90
52919;DHT22;38793;52.690;6.812;2022-12-18T02:13:13;-5.60;99.90
52919;DHT22;38793;52.690;6.812;2022-12-18T02:18:10;-5.70;99.90
52919;DHT22;38793;52.690;6.812;2022-12-18T02:20:49;-5.70;99.90
52919;DHT22;38793;52.690;6.812;2022-12-18T02:28:53;-5.60;99.90
52919;DHT22;38793;52.690;6.812;2022-12-18T02:31:27;-5.60;99.90
52919;DHT22;38793;52.690;6.812;2022-12-18T02:33:59;-5.60;99.90
52919;DHT22;38793;52.690;6.812;2022-12-18T02:36:27;-5.60;99.90
52919;DHT22;38793;52.690;6.812;2022-12-18T02:38:54;-5.60;99.90
52919;DHT22;38793;52.690;6.812;2022-12-18T02:41:21;-5.60;99.90
52919;DHT22;38793;52.690;6.812;2022-12-18T02:43:49;-5.60;99.90
52919;DHT22;38793;52.690;6.812;2022-12-18T02:46:31;-5.60;99.90
52919;DHT22;38793;52.690;6.812;2022-12-18T02:51:55;-5.70;99.90
52919;DHT22;38793;52.690;6.812;2022-12-18T02:57:41;-5.70;99.90
52919;DHT22;38793;52.690;6.812;2022-12-18T03:00:12;-5.70;99.90
52919;DHT22;38793;52.690;6.812;2022-12-18T03:05:16;-5.70;99.90
52919;DHT22;38793;52.690;6.812;2022-12-18T03:07:51;-5.70;99.90
52919;DHT22;38793;52.690;6.812;2022-12-18T03:10:24;-5.80;99.90
52919;DHT22;38793;52.690;6.812;2022-12-18T03:13:13;-5.70;99.90
52919;DHT22;38793;52.690;6.812;2022-12-18T03:15:46;-5.80;99.90
52919;DHT22;38793;52.690;6.812;2022-12-18T03:18:17;-5.80;99.90
52919;DHT22;38793;52.690;6.812;2022-12-18T03:20:44;-5.80;99.90
52919;DHT22;38793;52.690;6.812;2022-12-18T03:23:15;-5.80;99.90
52919;DHT22;38793;52.690;6.812;2022-12-18T03:25:43;-5.80;99.90
52919;DHT22;38793;52.690;6.812;2022-12-18T03:28:14;-5.90;99.90
52919;DHT22;38793;52.690;6.812;2022-12-18T03:30:44;-5.90;99.90
52919;DHT22;38793;52.690;6.812;2022-12-18T03:33:18;-5.90;99.90
52919;DHT22;38793;52.690;6.812;2022-12-18T03:35:45;-5.90;99.90
52919;DHT22;38793;52.690;6.812;2022-12-18T03:38:11;-5.90;99.90
52919;DHT22;38793;52.690;6.812;2022-12-18T03:43:49;-5.90;99.90
52919;DHT22;38793;52.690;6.812;2022-12-18T03:46:33;-5.90;99.90
52919;DHT22;38793;52.690;6.812;2022-12-18T03:49:26;-5.90;99.90
52919;DHT22;38793;52.690;6.812;2022-12-18T03:52:06;-5.90;99.90
52919;DHT22;38793;52.690;6.812;2022-12-18T03:54:35;-5.90;99.90
52919;DHT22;38793;52.690;6.812;2022-12-18T03:57:06;-5.90;99.90
52919;DHT22;38793;52.690;6.812;2022-12-18T03:59:33;-6.00;99.90
52919;DHT22;38793;52.690;6.812;2022-12-18T04:02:00;-6.00;99.90
52919;DHT22;38793;52.690;6.812;2022-12-18T04:04:27;-6.00;99.90
52919;DHT22;38793;52.690;6.812;2022-12-18T04:06:54;-6.00;99.90
52919;DHT22;38793;52.690;6.812;2022-12-18T04:09:21;-6.00;99.90
52919;DHT22;38793;52.690;6.812;2022-12-18T04:11:47;-6.00;99.90
52919;DHT22;38793;52.690;6.812;2022-12-18T04:14:13;-6.10;99.90
52919;DHT22;38793;52.690;6.812;2022-12-18T04:16:39;-6.10;99.90
52919;DHT22;38793;52.690;6.812;2022-12-18T04:19:05;-6.10;99.90
52919;DHT22;38793;52.690;6.812;2022-12-18T04:21:30;-6.10;99.90
52919;DHT22;38793;52.690;6.812;2022-12-18T04:23:56;-6.10;99.90
52919;DHT22;38793;52.690;6.812;2022-12-18T04:26:22;-6.10;99.90
52919;DHT22;38793;52.690;6.812;2022-12-18T04:28:47;-6.20;99.90
52919;DHT22;38793;52.690;6.812;2022-12-18T04:31:13;-6.20;99.90
52919;DHT22;38793;52.690;6.812;2022-12-18T04:33:38;-6.20;99.90
52919;DHT22;38793;52.690;6.812;2022-12-18T04:36:04;-6.30;99.90
52919;DHT22;38793;52.690;6.812;2022-12-18T04:38:30;-6.30;99.90
52919;DHT22;38793;52.690;6.812;2022-12-18T04:40:55;-6.30;99.90
52919;DHT22;38793;52.690;6.812;2022-12-18T04:43:21;-6.30;99.90
52919;DHT22;38793;52.690;6.812;2022-12-18T04:45:46;-6.30;99.90
52919;DHT22;38793;52.690;6.812;2022-12-18T04:48:12;-6.30;99.90
52919;DHT22;38793;52.690;6.812;2022-12-18T04:50:38;-6.30;99.90
52919;DHT22;38793;52.690;6.812;2022-12-18T04:53:03;-6.30;99.90
52919;DHT22;38793;52.690;6.812;2022-12-18T04:55:29;-6.30;99.90
52919;DHT22;38793;52.690;6.812;2022-12-18T04:57:55;-6.30;99.90
52919;DHT22;38793;52.690;6.812;2022-12-18T05:00:21;-6.30;99.90
52919;DHT22;38793;52.690;6.812;2022-12-18T05:02:47;-6.30;99.90
52919;DHT22;38793;52.690;6.812;2022-12-18T05:05:12;-6.30;99.90
52919;DHT22;38793;52.690;6.812;2022-12-18T05:07:38;-6.20;99.90
52919;DHT22;38793;52.690;6.812;2022-12-18T05:10:04;-6.30;99.90
52919;DHT22;38793;52.690;6.812;2022-12-18T05:12:31;-6.20;99.90
52919;DHT22;38793;52.690;6.812;2022-12-18T05:14:56;-6.30;99.90
52919;DHT22;38793;52.690;6.812;2022-12-18T05:17:22;-6.30;99.90
52919;DHT22;38793;52.690;6.812;2022-12-18T05:19:47;-6.30;99.90
52919;DHT22;38793;52.690;6.812;2022-12-18T05:22:13;-6.40;99.90
52919;DHT22;38793;52.690;6.812;2022-12-18T05:24:38;-6.40;99.90
52919;DHT22;38793;52.690;6.812;2022-12-18T05:27:04;-6.50;99.90
52919;DHT22;38793;52.690;6.812;2022-12-18T05:29:29;-6.60;99.90
52919;DHT22;38793;52.690;6.812;2022-12-18T05:31:55;-6.60;99.90
52919;DHT22;38793;52.690;6.812;2022-12-18T05:34:20;-6.60;99.90
52919;DHT22;38793;52.690;6.812;2022-12-18T05:36:46;-6.60;99.90
52919;DHT22;38793;52.690;6.812;2022-12-18T05:39:12;-6.60;99.90
52919;DHT22;38793;52.690;6.812;2022-12-18T05:41:37;-6.60;99.90
52919;DHT22;38793;52.690;6.812;2022-12-18T05:44:03;-6.60;99.90
52919;DHT22;38793;52.690;6.812;2022-12-18T05:46:29;-6.60;99.90
52919;DHT22;38793;52.690;6.812;2022-12-18T05:48:54;-6.60;99.90
52919;DHT22;38793;52.690;6.812;2022-12-18T05:51:21;-6.60;99.90
52919;DHT22;38793;52.690;6.812;2022-12-18T05:53:48;-6.60;99.90
52919;DHT22;38793;52.690;6.812;2022-12-18T05:56:19;-6.60;99.90
52919;DHT22;38793;52.690;6.812;2022-12-18T05:58:46;-6.60;99.90
52919;DHT22;38793;52.690;6.812;2022-12-18T06:01:15;-6.60;99.90
52919;DHT22;38793;52.690;6.812;2022-12-18T06:03:40;-6.70;99.90
52919;DHT22;38793;52.690;6.812;2022-12-18T06:06:17;-6.70;99.90
52919;DHT22;38793;52.690;6.812;2022-12-18T06:08:43;-6.70;99.90
52919;DHT22;38793;52.690;6.812;2022-12-18T06:11:09;-6.70;99.90
52919;DHT22;38793;52.690;6.812;2022-12-18T06:13:35;-6.70;99.90
52919;DHT22;38793;52.690;6.812;2022-12-18T06:16:07;-6.70;99.90
52919;DHT22;38793;52.690;6.812;2022-12-18T06:18:33;-6.70;99.90
52919;DHT22;38793;52.690;6.812;2022-12-18T06:21:00;-6.60;99.90
52919;DHT22;38793;52.690;6.812;2022-12-18T06:23:25;-6.70;99.90
52919;DHT22;38793;52.690;6.812;2022-12-18T06:25:52;-6.70;99.90
52919;DHT22;38793;52.690;6.812;2022-12-18T06:28:17;-6.70;99.90
52919;DHT22;38793;52.690;6.812;2022-12-18T06:30:44;-6.70;99.90
52919;DHT22;38793;52.690;6.812;2022-12-18T06:33:10;-6.70;99.90
52919;DHT22;38793;52.690;6.812;2022-12-18T06:35:35;-6.70;99.90
52919;DHT22;38793;52.690;6.812;2022-12-18T06:38:02;-6.70;99.90
52919;DHT22;38793;52.690;6.812;2022-12-18T06:40:28;-6.70;99.90
52919;DHT22;38793;52.690;6.812;2022-12-18T06:42:53;-6.70;99.90
52919;DHT22;38793;52.690;6.812;2022-12-18T06:45:19;-6.70;99.90
52919;DHT22;38793;52.690;6.812;2022-12-18T06:47:45;-6.80;99.90
52919;DHT22;38793;52.690;6.812;2022-12-18T06:50:11;-6.80;99.90
52919;DHT22;38793;52.690;6.812;2022-12-18T06:52:37;-6.80;99.90
52919;DHT22;38793;52.690;6.812;2022-12-18T06:55:04;-6.90;99.90
52919;DHT22;38793;52.690;6.812;2022-12-18T06:57:30;-6.90;99.90
52919;DHT22;38793;52.690;6.812;2022-12-18T06:59:56;-6.90;99.90
52919;DHT22;38793;52.690;6.812;2022-12-18T07:02:21;-6.90;99.90
52919;DHT22;38793;52.690;6.812;2022-12-18T07:04:47;-6.90;99.90
52919;DHT22;38793;52.690;6.812;2022-12-18T07:07:12;-6.90;99.90
52919;DHT22;38793;52.690;6.812;2022-12-18T07:09:38;-6.90;99.90
52919;DHT22;38793;52.690;6.812;2022-12-18T07:12:03;-7.00;99.90
52919;DHT22;38793;52.690;6.812;2022-12-18T07:14:30;-6.90;99.90
52919;DHT22;38793;52.690;6.812;2022-12-18T07:16:55;-6.90;99.90
52919;DHT22;38793;52.690;6.812;2022-12-18T07:19:21;-6.90;99.90
52919;DHT22;38793;52.690;6.812;2022-12-18T07:21:46;-6.90;99.90
52919;DHT22;38793;52.690;6.812;2022-12-18T07:24:12;-6.90;99.90
52919;DHT22;38793;52.690;6.812;2022-12-18T07:26:38;-6.90;99.90
52919;DHT22;38793;52.690;6.812;2022-12-18T07:29:03;-6.90;99.90
52919;DHT22;38793;52.690;6.812;2022-12-18T07:31:29;-6.90;99.90
52919;DHT22;38793;52.690;6.812;2022-12-18T07:33:55;-6.90;99.90
52919;DHT22;38793;52.690;6.812;2022-12-18T07:36:20;-6.90;99.90
52919;DHT22;38793;52.690;6.812;2022-12-18T07:38:50;-6.80;99.90
52919;DHT22;38793;52.690;6.812;2022-12-18T07:41:18;-6.80;99.90
52919;DHT22;38793;52.690;6.812;2022-12-18T07:43:44;-6.80;99.90
52919;DHT22;38793;52.690;6.812;2022-12-18T07:46:10;-6.70;99.90
52919;DHT22;38793;52.690;6.812;2022-12-18T07:48:36;-6.60;99.90
52919;DHT22;38793;52.690;6.812;2022-12-18T07:51:03;-6.50;99.90
52919;DHT22;38793;52.690;6.812;2022-12-18T07:53:29;-6.50;99.90
52919;DHT22;38793;52.690;6.812;2022-12-18T07:56:04;-6.40;99.90
52919;DHT22;38793;52.690;6.812;2022-12-18T07:58:31;-6.30;99.90
52919;DHT22;38793;52.690;6.812;2022-12-18T08:01:04;-6.20;99.90
52919;DHT22;38793;52.690;6.812;2022-12-18T08:03:29;-6.00;99.90
52919;DHT22;38793;52.690;6.812;2022-12-18T08:06:01;-6.00;99.90
52919;DHT22;38793;52.690;6.812;2022-12-18T08:08:28;-5.90;99.90
52919;DHT22;38793;52.690;6.812;2022-12-18T08:10:54;-5.70;99.90
52919;DHT22;38793;52.690;6.812;2022-12-18T08:13:19;-5.60;99.90
52919;DHT22;38793;52.690;6.812;2022-12-18T08:15:45;-5.40;99.90
52919;DHT22;38793;52.690;6.812;2022-12-18T08:18:10;-5.20;99.90
52919;DHT22;38793;52.690;6.812;2022-12-18T08:20:36;-5.10;99.90
52919;DHT22;38793;52.690;6.812;2022-12-18T08:23:01;-5.20;99.90
52919;DHT22;38793;52.690;6.812;2022-12-18T08:25:27;-5.20;99.90
52919;DHT22;38793;52.690;6.812;2022-12-18T08:27:52;-5.20;99.90
52919;DHT22;38793;52.690;6.812;2022-12-18T08:30:19;-5.20;99.90
52919;DHT22;38793;52.690;6.812;2022-12-18T08:32:44;-5.20;99.90
52919;DHT22;38793;52.690;6.812;2022-12-18T08:35:10;-5.20;99.90
52919;DHT22;38793;52.690;6.812;2022-12-18T08:37:37;-5.10;99.90
52919;DHT22;38793;52.690;6.812;2022-12-18T08:40:03;-5.00;99.90
52919;DHT22;38793;52.690;6.812;2022-12-18T08:42:29;-5.00;99.90
52919;DHT22;38793;52.690;6.812;2022-12-18T08:45:13;-4.90;99.90
52919;DHT22;38793;52.690;6.812;2022-12-18T08:47:38;-5.00;99.90
52919;DHT22;38793;52.690;6.812;2022-12-18T08:50:04;-4.90;99.90
52919;DHT22;38793;52.690;6.812;2022-12-18T08:52:31;-4.80;99.90
52919;DHT22;38793;52.690;6.812;2022-12-18T08:54:57;-4.80;99.90
52919;DHT22;38793;52.690;6.812;2022-12-18T08:57:23;-4.70;99.90
52919;DHT22;38793;52.690;6.812;2022-12-18T08:59:48;-4.50;99.90
52919;DHT22;38793;52.690;6.812;2022-12-18T09:02:14;-4.30;99.90
52919;DHT22;38793;52.690;6.812;2022-12-18T09:04:39;-4.10;99.90
52919;DHT22;38793;52.690;6.812;2022-12-18T09:07:05;-3.90;99.90
52919;DHT22;38793;52.690;6.812;2022-12-18T09:09:30;-3.70;99.90
52919;DHT22;38793;52.690;6.812;2022-12-18T09:11:56;-3.40;99.90
52919;DHT22;38793;52.690;6.812;2022-12-18T09:14:22;-3.20;99.90
52919;DHT22;38793;52.690;6.812;2022-12-18T09:16:47;-2.90;99.90
52919;DHT22;38793;52.690;6.812;2022-12-18T09:19:13;-2.70;99.90
52919;DHT22;38793;52.690;6.812;2022-12-18T09:21:39;-2.60;99.90
52919;DHT22;38793;52.690;6.812;2022-12-18T09:24:05;-2.70;99.90
52919;DHT22;38793;52.690;6.812;2022-12-18T09:26:31;-2.80;99.90
52919;DHT22;38793;52.690;6.812;2022-12-18T09:28:56;-2.80;99.90
52919;DHT22;38793;52.690;6.812;2022-12-18T09:31:23;-2.70;99.90
52919;DHT22;38793;52.690;6.812;2022-12-18T09:33:50;-2.50;99.90
52919;DHT22;38793;52.690;6.812;2022-12-18T09:36:16;-2.40;99.90
52919;DHT22;38793;52.690;6.812;2022-12-18T09:38:43;-2.10;99.90
52919;DHT22;38793;52.690;6.812;2022-12-18T09:44:02;-1.70;99.90
52919;DHT22;38793;52.690;6.812;2022-12-18T09:46:35;-1.60;99.90
52919;DHT22;38793;52.690;6.812;2022-12-18T09:49:07;-1.60;99.90
52919;DHT22;38793;52.690;6.812;2022-12-18T09:51:47;-1.70;99.90
52919;DHT22;38793;52.690;6.812;2022-12-18T09:54:20;-1.70;99.90
52919;DHT22;38793;52.690;6.812;2022-12-18T09:56:47;-1.80;99.90
52919;DHT22;38793;52.690;6.812;2022-12-18T09:59:39;-1.80;99.90
52919;DHT22;38793;52.690;6.812;2022-12-18T10:02:19;-1.80;99.90
52919;DHT22;38793;52.690;6.812;2022-12-18T10:07:27;-1.80;99.90
52919;DHT22;38793;52.690;6.812;2022-12-18T10:16:16;-1.60;99.90
52919;DHT22;38793;52.690;6.812;2022-12-18T10:19:09;-1.40;99.90
52919;DHT22;38793;52.690;6.812;2022-12-18T10:27:22;-1.50;99.90
52919;DHT22;38793;52.690;6.812;2022-12-18T10:29:48;-1.70;99.90
52919;DHT22;38793;52.690;6.812;2022-12-18T10:32:18;-1.80;99.90
52919;DHT22;38793;52.690;6.812;2022-12-18T10:34:51;-1.80;99.90
52919;DHT22;38793;52.690;6.812;2022-12-18T10:37:21;-1.90;99.90
52919;DHT22;38793;52.690;6.812;2022-12-18T10:42:31;-2.00;99.90
52919;DHT22;38793;52.690;6.812;2022-12-18T10:45:11;-2.00;99.90
52919;DHT22;38793;52.690;6.812;2022-12-18T10:47:43;-2.00;99.90
52919;DHT22;38793;52.690;6.812;2022-12-18T10:50:19;-2.00;99.90
52919;DHT22;38793;52.690;6.812;2022-12-18T10:52:57;-2.00;99.90
52919;DHT22;38793;52.690;6.812;2022-12-18T10:55:44;-2.00;99.90
52919;DHT22;38793;52.690;6.812;2022-12-18T10:58:24;-2.00;99.90
52919;DHT22;38793;52.690;6.812;2022-12-18T11:08:39;-1.90;99.90
52919;DHT22;38793;52.690;6.812;2022-12-18T11:11:28;-1.80;99.90
52919;DHT22;38793;52.690;6.812;2022-12-18T11:14:06;-1.80;99.90
52919;DHT22;38793;52.690;6.812;2022-12-18T11:16:44;-1.80;99.90
52919;DHT22;38793;52.690;6.812;2022-12-18T11:19:20;-1.70;99.90
52919;DHT22;38793;52.690;6.812;2022-12-18T11:21:47;-1.70;99.90
52919;DHT22;38793;52.690;6.812;2022-12-18T11:24:20;-1.70;99.90
52919;DHT22;38793;52.690;6.812;2022-12-18T11:26:48;-1.60;99.90
52919;DHT22;38793;52.690;6.812;2022-12-18T11:29:18;-1.60;99.90
52919;DHT22;38793;52.690;6.812;2022-12-18T11:31:43;-1.60;99.90
52919;DHT22;38793;52.690;6.812;2022-12-18T11:34:27;-1.60;99.90
52919;DHT22;38793;52.690;6.812;2022-12-18T11:36:54;-1.50;99.90
52919;DHT22;38793;52.690;6.812;2022-12-18T11:42:12;-1.50;99.90
52919;DHT22;38793;52.690;6.812;2022-12-18T11:44:59;-1.50;99.90
52919;DHT22;38793;52.690;6.812;2022-12-18T11:49:56;-1.40;99.90
52919;DHT22;38793;52.690;6.812;2022-12-18T11:52:39;-1.40;99.90
52919;DHT22;38793;52.690;6.812;2022-12-18T11:55:16;-1.40;99.90
52919;DHT22;38793;52.690;6.812;2022-12-18T11:58:11;-1.30;99.90
52919;DHT22;38793;52.690;6.812;2022-12-18T12:00:46;-1.30;99.90
52919;DHT22;38793;52.690;6.812;2022-12-18T12:03:22;-1.30;99.90
52919;DHT22;38793;52.690;6.812;2022-12-18T12:06:10;-1.30;99.90
52919;DHT22;38793;52.690;6.812;2022-12-18T12:11:58;-1.20;99.90
52919;DHT22;38793;52.690;6.812;2022-12-18T12:17:08;-1.10;99.90
52919;DHT22;38793;52.690;6.812;2022-12-18T12:19:52;-1.10;99.90
52919;DHT22;38793;52.690;6.812;2022-12-18T12:22:27;-1.10;99.90
52919;DHT22;38793;52.690;6.812;2022-12-18T12:25:09;-1.10;99.90
52919;DHT22;38793;52.690;6.812;2022-12-18T12:36:01;-1.00;99.90
52919;DHT22;38793;52.690;6.812;2022-12-18T12:38:41;-0.90;99.90
52919;DHT22;38793;52.690;6.812;2022-12-18T12:41:14;-0.90;99.90
52919;DHT22;38793;52.690;6.812;2022-12-18T12:44:03;-0.90;99.90
52919;DHT22;38793;52.690;6.812;2022-12-18T12:46:31;-0.90;99.90
52919;DHT22;38793;52.690;6.812;2022-12-18T12:49:02;-0.80;99.90
52919;DHT22;38793;52.690;6.812;2022-12-18T12:51:34;-0.80;99.90
52919;DHT22;38793;52.690;6.812;2022-12-18T12:54:02;-0.80;99.90
52919;DHT22;38793;52.690;6.812;2022-12-18T12:56:42;-0.80;99.90
52919;DHT22;38793;52.690;6.812;2022-12-18T12:59:27;-0.70;99.90
52919;DHT22;38793;52.690;6.812;2022-12-18T13:10:50;-0.70;99.90
52919;DHT22;38793;52.690;6.812;2022-12-18T13:13:50;-0.70;99.90
52919;DHT22;38793;52.690;6.812;2022-12-18T13:16:19;-0.70;99.90
52919;DHT22;38793;52.690;6.812;2022-12-18T13:18:55;-0.60;99.90
52919;DHT22;38793;52.690;6.812;2022-12-18T13:21:28;-0.60;99.90
52919;DHT22;38793;52.690;6.812;2022-12-18T13:23:55;-0.60;99.90
52919;DHT22;38793;52.690;6.812;2022-12-18T13:28:56;-0.60;99.90
52919;DHT22;38793;52.690;6.812;2022-12-18T13:31:58;-0.60;99.90
52919;DHT22;38793;52.690;6.812;2022-12-18T13:34:26;-0.60;99.90
52919;DHT22;38793;52.690;6.812;2022-12-18T13:36:53;-0.60;99.90
52919;DHT22;38793;52.690;6.812;2022-12-18T13:44:34;-0.60;99.90
52919;DHT22;38793;52.690;6.812;2022-12-18T13:47:04;-0.60;99.90
52919;DHT22;38793;52.690;6.812;2022-12-18T13:49:40;-0.70;99.90
52919;DHT22;38793;52.690;6.812;2022-12-18T13:52:26;-0.70;99.90
52919;DHT22;38793;52.690;6.812;2022-12-18T13:54:55;-0.70;99.90
52919;DHT22;38793;52.690;6.812;2022-12-18T13:57:31;-0.70;99.90
52919;DHT22;38793;52.690;6.812;2022-12-18T13:59:58;-0.70;99.90
52919;DHT22;38793;52.690;6.812;2022-12-18T14:02:37;-0.80;99.90
52919;DHT22;38793;52.690;6.812;2022-12-18T14:05:03;-0.80;99.90
52919;DHT22;38793;52.690;6.812;2022-12-18T14:07:29;-0.80;99.90
52919;DHT22;38793;52.690;6.812;2022-12-18T14:09:58;-0.80;99.90
52919;DHT22;38793;52.690;6.812;2022-12-18T14:12:28;-0.90;99.90
52919;DHT22;38793;52.690;6.812;2022-12-18T14:17:57;-0.90;99.90
52919;DHT22;38793;52.690;6.812;2022-12-18T14:20:29;-1.00;99.90
52919;DHT22;38793;52.690;6.812;2022-12-18T14:22:56;-1.00;99.90
52919;DHT22;38793;52.690;6.812;2022-12-18T14:25:22;-1.00;99.90
52919;DHT22;38793;52.690;6.812;2022-12-18T14:27:53;-1.00;99.90
52919;DHT22;38793;52.690;6.812;2022-12-18T14:30:31;-1.10;99.90
52919;DHT22;38793;52.690;6.812;2022-12-18T14:33:04;-1.10;99.90
52919;DHT22;38793;52.690;6.812;2022-12-18T14:35:31;-1.10;99.90
52919;DHT22;38793;52.690;6.812;2022-12-18T14:40:51;-1.10;99.90
52919;DHT22;38793;52.690;6.812;2022-12-18T14:43:17;-1.20;99.90
52919;DHT22;38793;52.690;6.812;2022-12-18T14:45:43;-1.20;99.90
52919;DHT22;38793;52.690;6.812;2022-12-18T14:48:16;-1.20;99.90
52919;DHT22;38793;52.690;6.812;2022-12-18T14:50:42;-1.20;99.90
52919;DHT22;38793;52.690;6.812;2022-12-18T14:53:38;-1.20;99.90
52919;DHT22;38793;52.690;6.812;2022-12-18T14:56:18;-1.20;99.90
52919;DHT22;38793;52.690;6.812;2022-12-18T14:58:47;-1.20;99.90
52919;DHT22;38793;52.690;6.812;2022-12-18T15:01:21;-1.30;99.90
52919;DHT22;38793;52.690;6.812;2022-12-18T15:03:48;-1.30;99.90
52919;DHT22;38793;52.690;6.812;2022-12-18T15:06:46;-1.30;99.90
52919;DHT22;38793;52.690;6.812;2022-12-18T15:09:23;-1.30;99.90
52919;DHT22;38793;52.690;6.812;2022-12-18T15:11:49;-1.30;99.90
52919;DHT22;38793;52.690;6.812;2022-12-18T15:14:43;-1.30;99.90
52919;DHT22;38793;52.690;6.812;2022-12-18T15:17:21;-1.30;99.90
52919;DHT22;38793;52.690;6.812;2022-12-18T15:19:48;-1.30;99.90
52919;DHT22;38793;52.690;6.812;2022-12-18T15:22:26;-1.30;99.90
52919;DHT22;38793;52.690;6.812;2022-12-18T15:24:54;-1.40;99.90
52919;DHT22;38793;52.690;6.812;2022-12-18T15:30:23;-1.40;99.90
52919;DHT22;38793;52.690;6.812;2022-12-18T15:32:49;-1.40;99.90
52919;DHT22;38793;52.690;6.812;2022-12-18T15:35:17;-1.40;99.90
52919;DHT22;38793;52.690;6.812;2022-12-18T15:37:43;-1.40;99.90
52919;DHT22;38793;52.690;6.812;2022-12-18T15:40:16;-1.40;99.90
52919;DHT22;38793;52.690;6.812;2022-12-18T15:42:43;-1.40;99.90
52919;DHT22;38793;52.690;6.812;2022-12-18T15:45:28;-1.40;99.90
52919;DHT22;38793;52.690;6.812;2022-12-18T15:47:53;-1.40;99.90
52919;DHT22;38793;52.690;6.812;2022-12-18T15:50:19;-1.50;99.90
52919;DHT22;38793;52.690;6.812;2022-12-18T15:52:46;-1.50;99.90
52919;DHT22;38793;52.690;6.812;2022-12-18T15:55:18;-1.50;99.90
52919;DHT22;38793;52.690;6.812;2022-12-18T15:58:04;-1.50;99.90
52919;DHT22;38793;52.690;6.812;2022-12-18T16:00:31;-1.50;99.90
52919;DHT22;38793;52.690;6.812;2022-12-18T16:02:56;-1.50;99.90
52919;DHT22;38793;52.690;6.812;2022-12-18T16:05:23;-1.50;99.90
52919;DHT22;38793;52.690;6.812;2022-12-18T16:07:48;-1.50;99.90
52919;DHT22;38793;52.690;6.812;2022-12-18T16:10:14;-1.50;99.90
52919;DHT22;38793;52.690;6.812;2022-12-18T16:12:40;-1.50;99.90
52919;DHT22;38793;52.690;6.812;2022-12-18T16:15:07;-1.50;99.90
52919;DHT22;38793;52.690;6.812;2022-12-18T16:17:33;-1.40;99.90
52919;DHT22;38793;52.690;6.812;2022-12-18T16:19:58;-1.40;99.90
52919;DHT22;38793;52.690;6.812;2022-12-18T16:22:30;-1.40;99.90
52919;DHT22;38793;52.690;6.812;2022-12-18T16:24:56;-1.40;99.90
52919;DHT22;38793;52.690;6.812;2022-12-18T16:27:23;-1.40;99.90
52919;DHT22;38793;52.690;6.812;2022-12-18T16:29:49;-1.40;99.90
52919;DHT22;38793;52.690;6.812;2022-12-18T16:32:17;-1.40;99.90
52919;DHT22;38793;52.690;6.812;2022-12-18T16:34:43;-1.40;99.90
52919;DHT22;38793;52.690;6.812;2022-12-18T16:37:10;-1.40;99.90
52919;DHT22;38793;52.690;6.812;2022-12-18T16:39:37;-1.40;99.90
52919;DHT22;38793;52.690;6.812;2022-12-18T16:42:22;-1.40;99.90
52919;DHT22;38793;52.690;6.812;2022-12-18T16:44:48;-1.30;99.90
52919;DHT22;38793;52.690;6.812;2022-12-18T16:47:14;-1.30;99.90
52919;DHT22;38793;52.690;6.812;2022-12-18T16:49:40;-1.30;99.90
52919;DHT22;38793;52.690;6.812;2022-12-18T16:52:06;-1.30;99.90
52919;DHT22;38793;52.690;6.812;2022-12-18T16:54:32;-1.30;99.90
52919;DHT22;38793;52.690;6.812;2022-12-18T16:56:59;-1.30;99.90
52919;DHT22;38793;52.690;6.812;2022-12-18T16:59:25;-1.30;99.90
52919;DHT22;38793;52.690;6.812;2022-12-18T17:01:51;-1.30;99.90
52919;DHT22;38793;52.690;6.812;2022-12-18T17:04:17;-1.30;99.90
52919;DHT22;38793;52.690;6.812;2022-12-18T17:06:44;-1.30;99.90
52919;DHT22;38793;52.690;6.812;2022-12-18T17:09:12;-1.20;99.90
52919;DHT22;38793;52.690;6.812;2022-12-18T17:11:41;-1.20;99.90
52919;DHT22;38793;52.690;6.812;2022-12-18T17:14:09;-1.20;99.90
52919;DHT22;38793;52.690;6.812;2022-12-18T17:16:35;-1.20;99.90
52919;DHT22;38793;52.690;6.812;2022-12-18T17:19:01;-1.20;99.90
52919;DHT22;38793;52.690;6.812;2022-12-18T17:21:26;-1.20;99.90
52919;DHT22;38793;52.690;6.812;2022-12-18T17:23:52;-1.20;99.90